createdAt,value
2019-05-14T00:01:44.588Z,8.37
2019-05-14T00:04:14.962Z,8.27
2019-05-14T00:06:46.226Z,8.13
2019-05-14T00:09:16.524Z,8.20
2019-05-14T00:11:47.088Z,8.20
2019-05-14T00:14:17.389Z,8.23
2019-05-14T00:16:47.684Z,8.26
2019-05-14T00:19:18.029Z,8.10
2019-05-14T00:21:51.446Z,7.98
2019-05-14T00:24:21.827Z,8.06
2019-05-14T00:26:52.207Z,8.00
2019-05-14T00:29:22.499Z,7.94
2019-05-14T00:31:52.795Z,7.94
2019-05-14T00:34:23.117Z,7.92
2019-05-14T00:36:53.407Z,7.79
2019-05-14T00:39:24.168Z,7.73
2019-05-14T00:41:54.463Z,7.72
2019-05-14T00:44:25.172Z,7.80
2019-05-14T00:46:55.867Z,7.77
2019-05-14T00:49:26.501Z,7.69
2019-05-14T00:51:56.796Z,7.79
2019-05-14T00:54:27.456Z,7.75
2019-05-14T00:56:57.822Z,7.73
2019-05-14T00:59:28.177Z,7.78
2019-05-14T01:01:58.470Z,7.72
2019-05-14T01:04:28.941Z,7.74
2019-05-14T01:07:01.570Z,7.73
2019-05-14T01:09:31.802Z,7.63
2019-05-14T01:12:02.528Z,7.55
2019-05-14T01:14:33.188Z,7.52
2019-05-14T01:17:03.480Z,7.40
2019-05-14T01:19:33.841Z,7.32
2019-05-14T01:22:04.517Z,7.24
2019-05-14T01:24:34.800Z,7.18
2019-05-14T01:27:05.429Z,7.02
2019-05-14T01:29:35.729Z,7.03
2019-05-14T01:32:06.692Z,6.85
2019-05-14T01:34:37.041Z,6.95
2019-05-14T01:37:07.324Z,7.06
2019-05-14T01:39:37.773Z,6.83
2019-05-14T01:42:08.534Z,6.81
2019-05-14T01:44:41.256Z,6.80
2019-05-14T01:47:12.751Z,6.68
2019-05-14T01:49:43.244Z,6.63
2019-05-14T01:52:13.540Z,6.64
2019-05-14T01:54:43.853Z,6.76
2019-05-14T01:57:15.480Z,6.76
2019-05-14T01:59:45.774Z,6.89
2019-05-14T02:02:16.432Z,6.95
2019-05-14T02:04:48.513Z,6.86
2019-05-14T02:07:18.874Z,6.86
2019-05-14T02:09:51.735Z,6.86
2019-05-14T02:12:22.497Z,6.93
2019-05-14T02:14:52.901Z,6.92
2019-05-14T02:17:23.193Z,6.89
2019-05-14T02:19:53.522Z,6.60
2019-05-14T02:22:23.884Z,6.49
2019-05-14T02:24:54.501Z,6.54
2019-05-14T02:27:24.801Z,6.50
2019-05-14T02:29:55.509Z,6.23
2019-05-14T02:32:29.570Z,6.38
2019-05-14T02:34:59.004Z,6.26
2019-05-14T02:37:30.199Z,6.41
2019-05-14T02:40:01.073Z,6.60
2019-05-14T02:42:31.562Z,6.56
2019-05-14T02:45:02.053Z,6.57
2019-05-14T02:47:32.644Z,6.60
2019-05-14T02:50:03.446Z,6.72
2019-05-14T02:52:33.921Z,6.71
2019-05-14T02:55:04.773Z,6.76
2019-05-14T02:57:35.198Z,6.80
2019-05-14T03:00:09.794Z,6.85
2019-05-14T03:02:40.342Z,6.73
2019-05-14T03:05:11.112Z,6.76
2019-05-14T03:07:42.349Z,6.81
2019-05-14T03:10:13.225Z,6.74
2019-05-14T03:12:43.699Z,6.74
2019-05-14T03:15:14.905Z,6.57
2019-05-14T03:17:45.432Z,6.58
2019-05-14T03:20:19.706Z,6.73
2019-05-14T03:23:01.818Z,6.73
2019-05-14T03:25:22.021Z,6.72
2019-05-14T03:27:52.445Z,6.71
2019-05-14T03:30:23.673Z,6.69
2019-05-14T03:32:54.258Z,6.64
2019-05-14T03:35:39.364Z,6.59
2019-05-14T03:38:00.156Z,6.50
2019-05-14T03:40:29.594Z,6.47
2019-05-14T03:43:00.139Z,6.44
2019-05-14T03:45:30.873Z,6.46
2019-05-14T03:48:01.708Z,6.55
2019-05-14T03:50:32.136Z,6.53
2019-05-14T03:53:02.896Z,6.47
2019-05-14T03:55:33.361Z,6.39
2019-05-14T03:58:03.881Z,6.22
2019-05-14T04:00:50.836Z,6.23
2019-05-14T04:03:22.157Z,6.30
2019-05-14T04:05:54.221Z,6.37
2019-05-14T04:08:29.325Z,6.43
2019-05-14T04:11:00.707Z,6.47
2019-05-14T04:13:33.096Z,6.54
2019-05-14T04:16:04.446Z,6.68
2019-05-14T04:18:40.182Z,6.83
2019-05-14T04:21:14.245Z,6.88
2019-05-14T04:23:51.015Z,6.89
2019-05-14T04:26:23.892Z,6.95
2019-05-14T04:29:00.197Z,6.98
2019-05-14T04:31:32.699Z,6.97
2019-05-14T04:34:04.373Z,6.98
2019-05-14T04:36:35.278Z,7.07
2019-05-14T04:39:09.555Z,6.98
2019-05-14T04:41:39.985Z,7.02
2019-05-14T04:44:10.418Z,6.99
2019-05-14T04:46:40.844Z,7.03
2019-05-14T04:49:11.329Z,6.95
2019-05-14T04:51:41.770Z,6.94
2019-05-14T04:54:13.161Z,6.81
2019-05-14T04:56:43.626Z,6.94
2019-05-14T04:59:14.086Z,7.06
2019-05-14T05:01:44.518Z,7.15
2019-05-14T05:04:15.433Z,7.39
2019-05-14T05:06:45.863Z,7.61
2019-05-14T05:09:19.787Z,7.75
2019-05-14T05:11:49.733Z,7.96
2019-05-14T05:14:23.724Z,8.11
2019-05-14T05:16:53.048Z,8.24
2019-05-14T05:19:24.551Z,8.26
2019-05-14T05:21:55.851Z,8.37
2019-05-14T05:24:28.559Z,8.39
2019-05-14T05:26:58.766Z,8.54
2019-05-14T05:29:29.905Z,8.58
2019-05-14T05:32:00.334Z,8.68
2019-05-14T05:34:30.816Z,8.74
2019-05-14T05:37:01.248Z,8.86
2019-05-14T05:39:31.675Z,8.90
2019-05-14T05:42:02.156Z,8.95
2019-05-14T05:44:32.904Z,9.16
2019-05-14T05:47:03.362Z,9.19
2019-05-14T05:49:33.845Z,9.18
2019-05-14T05:52:04.611Z,9.26
2019-05-14T05:54:35.380Z,9.40
2019-05-14T05:57:06.098Z,9.53
2019-05-14T05:59:39.179Z,9.60
2019-05-14T06:02:09.604Z,9.71
2019-05-14T06:04:40.141Z,9.91
2019-05-14T06:07:10.978Z,9.98
2019-05-14T06:09:41.401Z,10.02
2019-05-14T06:12:12.181Z,10.04
2019-05-14T06:14:42.980Z,10.14
2019-05-14T06:17:13.853Z,10.19
2019-05-14T06:19:44.510Z,10.24
2019-05-14T06:22:14.945Z,10.35
2019-05-14T06:24:48.353Z,10.50
2019-05-14T06:27:18.290Z,10.61
2019-05-14T06:29:49.131Z,10.65
2019-05-14T06:32:19.569Z,10.76
2019-05-14T06:34:50.058Z,10.96
2019-05-14T06:37:20.490Z,11.07
2019-05-14T06:39:50.916Z,11.09
2019-05-14T06:42:21.796Z,11.06
2019-05-14T06:44:52.267Z,11.12
2019-05-14T06:47:22.696Z,11.23
2019-05-14T06:49:53.653Z,11.36
2019-05-14T06:52:24.470Z,11.39
2019-05-14T06:54:54.905Z,11.42
2019-05-14T06:57:25.480Z,11.51
2019-05-14T06:59:58.743Z,11.33
2019-05-14T07:02:28.715Z,11.42
2019-05-14T07:04:59.242Z,11.32
2019-05-14T07:07:30.243Z,11.32
2019-05-14T07:10:00.847Z,11.51
2019-05-14T07:12:31.334Z,11.54
2019-05-14T07:15:02.196Z,11.55
2019-05-14T07:17:33.075Z,11.51
2019-05-14T07:20:03.551Z,11.55
2019-05-14T07:22:34.326Z,11.73
2019-05-14T07:25:05.736Z,11.79
2019-05-14T07:27:38.976Z,11.92
2019-05-14T07:30:09.529Z,12.01
2019-05-14T07:32:40.035Z,12.04
2019-05-14T07:35:10.898Z,12.04
2019-05-14T07:37:41.325Z,12.15
2019-05-14T07:40:12.316Z,12.17
2019-05-14T07:42:42.742Z,12.21
2019-05-14T07:45:13.698Z,12.24
2019-05-14T07:47:44.192Z,12.37
2019-05-14T07:50:15.105Z,12.39
2019-05-14T07:52:46.267Z,12.53
2019-05-14T07:55:18.475Z,12.60
2019-05-14T07:57:49.170Z,12.78
2019-05-14T08:00:20.205Z,12.82
2019-05-14T08:02:51.573Z,12.87
2019-05-14T08:05:22.014Z,12.93
2019-05-14T08:07:52.453Z,13.00
2019-05-14T08:10:23.045Z,13.18
2019-05-14T08:12:54.247Z,13.22
2019-05-14T08:15:25.033Z,13.27
2019-05-14T08:17:55.523Z,13.40
2019-05-14T08:20:25.958Z,13.57
2019-05-14T08:22:58.197Z,13.59
2019-05-14T08:25:29.008Z,13.65
2019-05-14T08:27:59.547Z,13.67
2019-05-14T08:30:29.991Z,13.68
2019-05-14T08:33:00.473Z,13.73
2019-05-14T08:35:34.045Z,13.86
2019-05-14T08:38:07.631Z,13.92
2019-05-14T08:40:35.258Z,14.09
2019-05-14T08:43:05.701Z,14.08
2019-05-14T08:45:36.130Z,14.24
2019-05-14T08:48:09.165Z,14.39
2019-05-14T08:50:39.272Z,14.38
2019-05-14T08:53:09.981Z,14.46
2019-05-14T08:55:40.760Z,14.51
2019-05-14T08:58:13.915Z,14.69
2019-05-14T09:00:43.326Z,14.89
2019-05-14T09:03:13.805Z,14.92
2019-05-14T09:05:44.285Z,14.88
2019-05-14T09:08:14.718Z,14.49
2019-05-14T09:10:45.212Z,14.46
2019-05-14T09:13:18.195Z,14.34
2019-05-14T09:15:48.920Z,14.58
2019-05-14T09:18:19.661Z,14.57
2019-05-14T09:20:50.089Z,14.68
2019-05-14T09:23:20.522Z,14.81
2019-05-14T09:25:53.402Z,15.07
2019-05-14T09:28:23.305Z,15.27
2019-05-14T09:30:54.707Z,15.34
2019-05-14T09:33:26.035Z,15.47
2019-05-14T09:36:13.738Z,15.70
2019-05-14T09:38:29.447Z,15.57
2019-05-14T09:41:10.610Z,15.19
2019-05-14T09:43:32.994Z,14.93
2019-05-14T09:46:03.438Z,15.09
2019-05-14T09:48:33.873Z,15.02
2019-05-14T09:51:04.449Z,14.91
2019-05-14T09:53:34.885Z,14.72
2019-05-14T09:56:05.327Z,14.57
2019-05-14T09:58:38.512Z,14.84
2019-05-14T10:01:08.713Z,15.13
2019-05-14T10:03:39.721Z,15.09
2019-05-14T10:06:10.210Z,15.21
2019-05-14T10:08:40.859Z,14.97
2019-05-14T10:11:11.329Z,14.83
2019-05-14T10:13:42.084Z,14.66
2019-05-14T10:16:12.518Z,14.88
2019-05-14T10:18:43.317Z,15.26
2019-05-14T10:21:14.124Z,15.56
2019-05-14T10:23:44.856Z,15.89
2019-05-14T10:26:18.537Z,16.06
2019-05-14T10:28:48.634Z,16.13
2019-05-14T10:31:19.235Z,16.23
2019-05-14T10:33:50.049Z,16.39
2019-05-14T10:36:20.549Z,16.55
2019-05-14T10:38:50.987Z,16.75
2019-05-14T10:41:21.440Z,16.80
2019-05-14T10:43:51.943Z,16.74
2019-05-14T10:46:22.387Z,16.36
2019-05-14T10:48:53.137Z,16.01
2019-05-14T10:51:23.982Z,15.86
2019-05-14T10:53:55.538Z,15.56
2019-05-14T10:56:25.992Z,15.46
2019-05-14T10:58:58.426Z,15.45
2019-05-14T11:01:29.408Z,15.25
2019-05-14T11:04:00.184Z,15.09
2019-05-14T11:06:31.100Z,14.87
2019-05-14T11:09:01.554Z,14.91
2019-05-14T11:11:31.981Z,15.26
2019-05-14T11:14:02.495Z,15.67
2019-05-14T11:16:32.925Z,15.73
2019-05-14T11:19:03.358Z,15.66
2019-05-14T11:21:33.935Z,15.85
2019-05-14T11:24:04.482Z,15.86
2019-05-14T11:26:34.916Z,16.13
2019-05-14T11:29:05.883Z,16.51
2019-05-14T11:31:39.094Z,16.62
2019-05-14T11:34:09.166Z,16.54
2019-05-14T11:36:39.658Z,16.27
2019-05-14T11:39:10.197Z,15.95
2019-05-14T11:41:40.632Z,15.61
2019-05-14T11:44:11.126Z,15.43
2019-05-14T11:46:51.368Z,15.54
2019-05-14T11:49:14.185Z,16.06
2019-05-14T11:52:00.940Z,16.49
2019-05-14T11:54:18.768Z,16.94
2019-05-14T11:56:49.409Z,16.81
2019-05-14T11:59:19.894Z,16.59
2019-05-14T12:01:50.345Z,16.35
2019-05-14T12:04:21.077Z,16.18
2019-05-14T12:06:51.572Z,16.05
2019-05-14T12:09:22.059Z,15.95
2019-05-14T12:11:52.493Z,16.31
2019-05-14T12:14:22.995Z,16.61
2019-05-14T12:16:53.445Z,16.42
2019-05-14T12:19:23.902Z,16.74
2019-05-14T12:22:06.340Z,16.58
2019-05-14T12:24:28.986Z,16.48
2019-05-14T12:26:58.813Z,16.57
2019-05-14T12:29:29.505Z,16.94
2019-05-14T12:31:59.957Z,17.36
2019-05-14T12:34:30.666Z,17.78
2019-05-14T12:37:01.119Z,17.62
2019-05-14T12:39:31.907Z,17.53
2019-05-14T12:42:02.586Z,17.28
2019-05-14T12:44:33.191Z,16.98
2019-05-14T12:47:03.642Z,16.98
2019-05-14T12:49:34.146Z,17.21
2019-05-14T12:52:19.030Z,17.18
2019-05-14T12:54:38.661Z,17.30
2019-05-14T12:57:09.796Z,17.68
2019-05-14T12:59:40.562Z,18.19
2019-05-14T13:02:11.032Z,18.50
2019-05-14T13:04:41.527Z,18.40
2019-05-14T13:07:11.959Z,17.48
2019-05-14T13:09:42.464Z,17.13
2019-05-14T13:12:13.205Z,17.13
2019-05-14T13:14:43.652Z,16.81
2019-05-14T13:17:14.129Z,16.44
2019-05-14T13:19:44.661Z,16.50
2019-05-14T13:22:19.091Z,16.90
2019-05-14T13:24:49.276Z,17.42
2019-05-14T13:27:19.519Z,17.93
2019-05-14T13:29:51.591Z,18.08
2019-05-14T13:32:22.093Z,17.67
2019-05-14T13:34:52.556Z,17.40
2019-05-14T13:37:23.761Z,17.02
2019-05-14T13:39:54.575Z,16.95
2019-05-14T13:42:25.020Z,17.35
2019-05-14T13:44:55.457Z,17.68
2019-05-14T13:47:28.628Z,17.94
2019-05-14T13:49:59.232Z,17.69
2019-05-14T13:52:30.267Z,17.98
2019-05-14T13:55:00.766Z,17.88
2019-05-14T13:57:31.584Z,17.80
2019-05-14T14:00:02.038Z,17.71
2019-05-14T14:02:32.552Z,17.43
2019-05-14T14:05:03.401Z,17.18
2019-05-14T14:07:34.241Z,17.28
2019-05-14T14:10:04.880Z,17.72
2019-05-14T14:12:35.316Z,17.83
2019-05-14T14:15:09.555Z,17.63
2019-05-14T14:17:39.620Z,17.83
2019-05-14T14:20:10.997Z,17.71
2019-05-14T14:22:41.444Z,17.25
2019-05-14T14:25:12.555Z,17.15
2019-05-14T14:27:43.005Z,17.09
2019-05-14T14:30:14.785Z,17.32
2019-05-14T14:32:45.265Z,17.55
2019-05-14T14:35:15.864Z,17.55
2019-05-14T14:37:49.188Z,17.74
2019-05-14T14:40:22.054Z,17.72
2019-05-14T14:42:51.303Z,17.71
2019-05-14T14:45:22.043Z,17.58
2019-05-14T14:47:52.981Z,17.40
2019-05-14T14:50:23.413Z,17.22
2019-05-14T14:52:54.251Z,16.95
2019-05-14T14:55:24.757Z,16.73
2019-05-14T14:57:55.782Z,16.62
2019-05-14T15:00:29.146Z,16.43
2019-05-14T15:02:59.666Z,16.31
2019-05-14T15:05:30.434Z,16.30
2019-05-14T15:08:01.147Z,16.25
2019-05-14T15:10:31.975Z,16.25
2019-05-14T15:13:02.798Z,16.37
2019-05-14T15:15:34.821Z,16.49
2019-05-14T15:18:05.686Z,16.63
2019-05-14T15:20:36.406Z,16.72
2019-05-14T15:23:09.772Z,16.69
2019-05-14T15:25:39.238Z,16.62
2019-05-14T15:28:09.716Z,16.44
2019-05-14T15:30:40.326Z,16.28
2019-05-14T15:33:10.842Z,16.11
2019-05-14T15:35:41.300Z,15.99
2019-05-14T15:38:11.753Z,15.98
2019-05-14T15:40:42.242Z,16.02
2019-05-14T15:43:13.089Z,16.05
2019-05-14T15:45:43.539Z,16.10
2019-05-14T15:48:14.804Z,15.96
2019-05-14T15:50:46.311Z,15.86
2019-05-14T15:53:19.285Z,15.79
2019-05-14T15:55:49.365Z,15.64
2019-05-14T15:58:21.229Z,15.53
2019-05-14T16:00:51.933Z,15.48
2019-05-14T16:03:22.757Z,15.40
2019-05-14T16:05:53.189Z,15.32
2019-05-14T16:08:23.642Z,15.35
2019-05-14T16:10:54.134Z,15.41
2019-05-14T16:13:24.896Z,15.43
2019-05-14T16:15:55.737Z,15.55
2019-05-14T16:18:26.406Z,15.64
2019-05-14T16:20:59.375Z,15.72
2019-05-14T16:23:29.010Z,15.73
2019-05-14T16:25:59.505Z,15.78
2019-05-14T16:28:29.959Z,15.52
2019-05-14T16:31:00.769Z,15.38
2019-05-14T16:33:31.596Z,15.25
2019-05-14T16:36:02.345Z,15.20
2019-05-14T16:38:32.796Z,15.20
2019-05-14T16:41:04.391Z,15.14
2019-05-14T16:43:34.817Z,15.08
2019-05-14T16:46:05.684Z,15.12
2019-05-14T16:48:36.168Z,15.17
2019-05-14T16:51:08.884Z,15.10
2019-05-14T16:53:39.513Z,15.09
2019-05-14T16:56:09.992Z,14.98
2019-05-14T16:58:40.438Z,15.00
2019-05-14T17:01:11.183Z,14.93
2019-05-14T17:03:41.671Z,14.90
2019-05-14T17:06:12.437Z,14.91
2019-05-14T17:08:42.908Z,14.93
2019-05-14T17:11:13.786Z,14.96
2019-05-14T17:13:44.626Z,14.99
2019-05-14T17:16:15.057Z,14.98
2019-05-14T17:18:48.432Z,14.98
2019-05-14T17:21:18.408Z,14.90
2019-05-14T17:23:49.157Z,14.87
2019-05-14T17:26:19.848Z,14.73
2019-05-14T17:28:50.328Z,14.65
2019-05-14T17:31:20.782Z,14.60
2019-05-14T17:33:51.852Z,14.56
2019-05-14T17:36:22.285Z,14.51
2019-05-14T17:38:53.094Z,14.57
2019-05-14T17:41:23.592Z,14.58
2019-05-14T17:43:55.548Z,14.60
2019-05-14T17:46:28.833Z,14.52
2019-05-14T17:49:00.445Z,14.48
2019-05-14T17:51:31.508Z,14.30
2019-05-14T17:54:02.352Z,14.19
2019-05-14T17:56:33.597Z,14.11
2019-05-14T17:59:04.334Z,13.95
2019-05-14T18:01:35.657Z,13.88
2019-05-14T18:04:08.605Z,13.87
2019-05-14T18:06:38.698Z,13.78
2019-05-14T18:09:09.258Z,13.72
2019-05-14T18:11:40.651Z,13.62
2019-05-14T18:14:11.809Z,13.52
2019-05-14T18:16:43.053Z,13.49
2019-05-14T18:19:13.533Z,13.39
2019-05-14T18:21:43.989Z,13.34
2019-05-14T18:24:15.217Z,13.31
2019-05-14T18:26:47.953Z,13.25
2019-05-14T18:29:18.937Z,13.18
2019-05-14T18:31:53.908Z,13.11
2019-05-14T18:34:22.149Z,13.05
2019-05-14T18:36:53.749Z,12.97
2019-05-14T18:39:44.532Z,12.91
2019-05-14T18:42:15.349Z,12.87
2019-05-14T18:44:49.605Z,12.76
2019-05-14T18:47:20.008Z,12.69
2019-05-14T18:49:50.615Z,12.68
2019-05-14T18:52:21.733Z,12.65
2019-05-14T18:54:52.589Z,12.57
2019-05-14T18:57:23.042Z,12.52
2019-05-14T18:59:53.474Z,12.48
2019-05-14T19:02:25.561Z,12.41
2019-05-14T19:04:57.974Z,12.35
2019-05-14T19:07:28.899Z,12.35
2019-05-14T19:09:59.432Z,12.36
2019-05-14T19:12:29.876Z,12.26
2019-05-14T19:15:01.827Z,12.23
2019-05-14T19:17:32.685Z,12.09
2019-05-14T19:20:03.118Z,12.06
2019-05-14T19:22:33.850Z,11.97
2019-05-14T19:25:04.422Z,11.90
2019-05-14T19:27:34.857Z,11.82
2019-05-14T19:30:08.228Z,11.80
2019-05-14T19:32:39.400Z,11.79
2019-05-14T19:35:10.540Z,11.77
2019-05-14T19:37:41.343Z,11.67
2019-05-14T19:40:12.688Z,11.65
2019-05-14T19:42:43.535Z,11.65
2019-05-14T19:45:14.383Z,11.63
2019-05-14T19:47:45.209Z,11.64
2019-05-14T19:50:18.591Z,11.59
2019-05-14T19:52:48.969Z,11.56
2019-05-14T19:55:19.373Z,11.48
2019-05-14T19:57:50.245Z,11.48
2019-05-14T20:00:25.273Z,11.40
2019-05-14T20:02:58.054Z,11.32
2019-05-14T20:05:28.671Z,11.31
2019-05-14T20:07:59.629Z,11.23
2019-05-14T20:10:30.124Z,11.15
2019-05-14T20:13:00.546Z,11.09
2019-05-14T20:15:31.031Z,11.07
2019-05-14T20:18:01.916Z,10.99
2019-05-14T20:20:33.414Z,10.90
2019-05-14T20:23:03.859Z,10.95
2019-05-14T20:25:34.758Z,10.88
2019-05-14T20:28:05.424Z,10.87
2019-05-14T20:30:38.636Z,10.78
2019-05-14T20:33:09.216Z,10.74
2019-05-14T20:35:39.648Z,10.65
2019-05-14T20:38:10.484Z,10.59
2019-05-14T20:40:40.996Z,10.47
2019-05-14T20:43:11.441Z,10.45
2019-05-14T20:45:41.873Z,10.42
2019-05-14T20:48:12.344Z,10.41
2019-05-14T20:50:42.788Z,10.38
2019-05-14T20:53:13.589Z,10.31
2019-05-14T20:55:44.116Z,10.32
2019-05-14T20:58:15.291Z,10.22
2019-05-14T21:00:45.720Z,10.22
2019-05-14T21:03:18.517Z,10.18
2019-05-14T21:05:49.223Z,10.13
2019-05-14T21:08:20.026Z,10.07
2019-05-14T21:10:50.884Z,10.06
2019-05-14T21:13:22.441Z,10.05
2019-05-14T21:15:53.328Z,10.00
2019-05-14T21:18:34.775Z,9.90
2019-05-14T21:20:57.307Z,9.89
2019-05-14T21:23:29.873Z,9.94
2019-05-14T21:25:59.883Z,9.91
2019-05-14T21:28:30.387Z,9.89
2019-05-14T21:31:01.011Z,9.83
2019-05-14T21:33:32.135Z,9.84
2019-05-14T21:36:02.627Z,9.77
2019-05-14T21:38:33.387Z,9.71
2019-05-14T21:41:03.807Z,9.67
2019-05-14T21:43:34.690Z,9.68
2019-05-14T21:46:05.378Z,9.66
2019-05-14T21:48:35.795Z,9.63
2019-05-14T21:51:08.550Z,9.58
2019-05-14T21:53:41.173Z,9.56
2019-05-14T21:56:10.555Z,9.53
2019-05-14T21:58:41.327Z,9.51
2019-05-14T22:01:12.827Z,9.50
2019-05-14T22:03:43.302Z,9.50
2019-05-14T22:06:13.708Z,9.44
2019-05-14T22:08:44.134Z,9.45
2019-05-14T22:11:14.606Z,9.44
2019-05-14T22:13:45.375Z,9.43
2019-05-14T22:16:16.265Z,9.41
2019-05-14T22:18:48.349Z,9.34
2019-05-14T22:21:18.896Z,9.30
2019-05-14T22:23:49.323Z,9.30
2019-05-14T22:26:19.809Z,9.26
2019-05-14T22:28:50.413Z,9.30
2019-05-14T22:31:20.833Z,9.24
2019-05-14T22:33:51.591Z,9.18
2019-05-14T22:36:22.453Z,9.11
2019-05-14T22:38:52.862Z,9.15
2019-05-14T22:41:23.599Z,9.07
2019-05-14T22:43:56.800Z,9.10
2019-05-14T22:46:26.130Z,9.02
2019-05-14T22:48:58.601Z,9.05
2019-05-14T22:51:28.747Z,8.93
2019-05-14T22:53:59.558Z,8.89
2019-05-14T22:56:30.046Z,8.83
2019-05-14T22:59:00.787Z,8.79
2019-05-14T23:01:31.475Z,8.73
2019-05-14T23:04:01.939Z,8.65
2019-05-14T23:06:33.063Z,8.62
2019-05-14T23:09:04.481Z,8.55
2019-05-14T23:11:34.949Z,8.56
2019-05-14T23:14:07.728Z,8.52
2019-05-14T23:16:41.828Z,8.47
2019-05-14T23:19:10.998Z,8.43
2019-05-14T23:21:41.420Z,8.38
2019-05-14T23:24:11.832Z,8.31
2019-05-14T23:26:42.612Z,8.24
2019-05-14T23:29:13.416Z,8.31
2019-05-14T23:31:44.000Z,8.23
2019-05-14T23:34:14.484Z,8.19
2019-05-14T23:36:44.908Z,8.19
2019-05-14T23:39:15.811Z,8.16
2019-05-14T23:41:48.597Z,8.12
2019-05-14T23:44:19.132Z,8.02
2019-05-14T23:46:49.693Z,8.06
2019-05-14T23:49:20.171Z,8.02
2019-05-14T23:51:50.599Z,7.95
2019-05-14T23:54:21.037Z,7.89
2019-05-14T23:56:51.536Z,7.88
2019-05-14T23:59:21.998Z,7.83
